Time;durP1;ratioP1;P1;durP2;ratioP2;P2;SDS_P1;SDS_P2;PMS_P1;PMS_P2;Temp;Humidity;BMP_temperature;BMP_pressure;BME280_temperature;BME280_humidity;BME280_pressure;Samples;Min_cycle;Max_cycle;Signal;HPM_P1;HPM_P2
2021/07/17 00:01:35;;;;;;;5.65;5.25;;;18.60;99.90;;;;;;4916274;29;20307;-56
2021/07/17 00:04:04;;;;;;;5.97;5.47;;;18.50;99.90;;;;;;4916150;29;20557;-54
2021/07/17 00:06:49;;;;;;;6.55;5.95;;;18.50;99.90;;;;;;4915942;29;20220;-54
2021/07/17 00:09:17;;;;;;;6.68;6.18;;;18.40;99.90;;;;;;4915742;29;20248;-52
2021/07/17 00:11:46;;;;;;;6.50;6.00;;;18.40;99.90;;;;;;4915979;29;20673;-55
2021/07/17 00:14:14;;;;;;;7.10;6.60;;;18.30;99.90;;;;;;4915741;29;20335;-54
2021/07/17 00:16:43;;;;;;;7.20;6.53;;;18.30;99.90;;;;;;4915769;29;20335;-55
2021/07/17 00:19:11;;;;;;;8.25;7.47;;;18.20;99.90;;;;;;4915921;29;20213;-53
2021/07/17 00:21:39;;;;;;;7.70;7.00;;;18.20;99.90;;;;;;4915830;29;20213;-55
2021/07/17 00:24:09;;;;;;;7.65;6.95;;;18.20;99.90;;;;;;4915781;29;20222;-53
2021/07/17 00:26:36;;;;;;;8.73;7.82;;;18.10;99.90;;;;;;4915684;29;20565;-54
2021/07/17 00:29:04;;;;;;;8.88;8.07;;;18.10;99.90;;;;;;4915857;29;20255;-57
2021/07/17 00:31:32;;;;;;;8.27;7.50;;;18.10;99.90;;;;;;4915934;29;20315;-55
2021/07/17 00:34:00;;;;;;;9.40;8.18;;;18.10;99.90;;;;;;4915821;29;20217;-53
2021/07/17 00:36:28;;;;;;;8.70;7.90;;;18.10;99.90;;;;;;4915586;29;20229;-56
2021/07/17 00:38:56;;;;;;;8.60;7.90;;;18.00;99.90;;;;;;4915599;29;20647;-54
2021/07/17 00:41:26;;;;;;;9.52;8.60;;;18.00;99.90;;;;;;4915405;29;20306;-53
2021/07/17 00:43:53;;;;;;;8.93;8.10;;;18.00;99.90;;;;;;4917409;29;20212;-52
2021/07/17 00:46:22;;;;;;;8.88;8.00;;;18.00;99.90;;;;;;4919434;29;20232;-54
2021/07/17 00:48:50;;;;;;;10.32;9.52;;;17.90;99.90;;;;;;4919405;29;20217;-51
2021/07/17 00:51:19;;;;;;;9.70;8.65;;;17.90;99.90;;;;;;4919374;29;20213;-55
2021/07/17 00:53:47;;;;;;;9.57;8.63;;;17.90;99.90;;;;;;4919194;29;20699;-53
2021/07/17 00:56:16;;;;;;;9.20;8.25;;;17.90;99.90;;;;;;4919132;29;20717;-54
2021/07/17 00:58:47;;;;;;;9.32;8.50;;;17.90;99.90;;;;;;4919132;29;20308;-56
2021/07/17 01:01:16;;;;;;;9.32;8.52;;;17.90;99.90;;;;;;4919287;29;20212;-56
2021/07/17 01:03:44;;;;;;;9.95;9.02;;;17.90;99.90;;;;;;4919105;29;20575;-54
2021/07/17 01:06:13;;;;;;;10.93;9.93;;;17.90;99.90;;;;;;4919012;29;20244;-56
2021/07/17 01:08:41;;;;;;;10.23;9.32;;;17.80;99.90;;;;;;4918935;29;20413;-55
2021/07/17 01:11:09;;;;;;;10.13;9.15;;;17.80;99.90;;;;;;4919122;29;20223;-55
2021/07/17 01:13:36;;;;;;;11.82;10.65;;;17.80;99.90;;;;;;4918952;29;20217;-54
2021/07/17 01:16:06;;;;;;;11.25;10.35;;;17.80;99.90;;;;;;4918787;29;20308;-53
2021/07/17 01:18:34;;;;;;;11.90;10.80;;;17.70;99.90;;;;;;4918737;29;20216;-56
2021/07/17 01:21:03;;;;;;;10.65;9.75;;;17.70;99.90;;;;;;4918641;29;20225;-54
2021/07/17 01:23:32;;;;;;;12.45;11.18;;;17.70;99.90;;;;;;4918790;29;20737;-57
2021/07/17 01:26:00;;;;;;;12.65;11.45;;;17.60;99.90;;;;;;4918809;29;20295;-58
2021/07/17 01:28:28;;;;;;;11.00;10.10;;;17.60;99.90;;;;;;4918715;29;20300;-50
2021/07/17 01:30:56;;;;;;;12.27;11.20;;;17.60;99.90;;;;;;4918712;29;20212;-57
2021/07/17 01:33:24;;;;;;;11.52;10.63;;;17.60;99.90;;;;;;4918445;29;20312;-55
2021/07/17 01:35:52;;;;;;;11.60;10.45;;;17.50;99.90;;;;;;4918775;29;20219;-54
2021/07/17 01:38:20;;;;;;;14.10;12.80;;;17.50;99.90;;;;;;4918540;29;20256;-56
2021/07/17 01:40:50;;;;;;;12.88;11.68;;;17.50;99.90;;;;;;4918735;29;20295;-55
2021/07/17 01:43:18;;;;;;;13.10;11.90;;;17.50;99.90;;;;;;4918503;29;20307;-56
2021/07/17 01:45:46;;;;;;;13.68;12.52;;;17.50;99.90;;;;;;4918414;29;20296;-57
2021/07/17 01:48:15;;;;;;;13.40;12.20;;;17.50;99.90;;;;;;4918588;29;20308;-53
2021/07/17 01:50:44;;;;;;;14.52;13.07;;;17.50;99.90;;;;;;4918576;29;20273;-55
2021/07/17 01:53:13;;;;;;;13.52;12.30;;;17.50;99.90;;;;;;4918323;29;20224;-55
2021/07/17 01:55:42;;;;;;;13.88;12.48;;;17.60;99.90;;;;;;4917792;29;20307;-53
2021/07/17 01:58:12;;;;;;;13.13;12.05;;;17.60;99.90;;;;;;4918212;29;20779;-57
2021/07/17 02:00:40;;;;;;;15.07;13.38;;;17.60;99.90;;;;;;4918169;29;20214;-56
2021/07/17 02:03:10;;;;;;;15.90;12.98;;;17.60;99.90;;;;;;4918204;29;20209;-57
2021/07/17 02:05:39;;;;;;;14.23;12.98;;;17.60;99.90;;;;;;4918264;29;20247;-58
2021/07/17 02:08:11;;;;;;;14.63;13.32;;;17.60;99.90;;;;;;4917911;29;20240;-55
2021/07/17 02:10:39;;;;;;;14.55;13.25;;;17.60;99.90;;;;;;4917855;29;20301;-56
2021/07/17 02:13:09;;;;;;;16.45;14.95;;;17.60;99.90;;;;;;4917977;29;20684;-56
2021/07/17 02:15:43;;;;;;;14.75;13.27;;;17.50;99.90;;;;;;4917853;29;20245;-57
2021/07/17 02:18:12;;;;;;;14.80;13.57;;;17.50;99.90;;;;;;4917999;29;20232;-57
2021/07/17 02:20:40;;;;;;;16.33;14.88;;;17.50;99.90;;;;;;4917873;29;20623;-57
2021/07/17 02:23:09;;;;;;;15.73;14.30;;;17.40;99.90;;;;;;4917599;29;20303;-56
2021/07/17 02:25:37;;;;;;;16.00;14.40;;;17.40;99.90;;;;;;4917534;29;20610;-57
2021/07/17 02:28:05;;;;;;;16.73;15.13;;;17.30;99.90;;;;;;4917607;29;20627;-53
2021/07/17 02:30:33;;;;;;;15.65;14.25;;;17.30;99.90;;;;;;4917550;29;20220;-56
2021/07/17 02:33:03;;;;;;;17.38;15.65;;;17.30;99.90;;;;;;4917643;29;20296;-55
2021/07/17 02:35:31;;;;;;;17.00;15.50;;;17.30;99.90;;;;;;4917407;29;20217;-56
2021/07/17 02:37:59;;;;;;;17.42;15.75;;;17.30;99.90;;;;;;4917319;29;20229;-57
2021/07/17 02:40:26;;;;;;;17.77;16.17;;;17.30;99.90;;;;;;4917428;29;20745;-54
2021/07/17 02:42:54;;;;;;;19.50;17.73;;;17.30;99.90;;;;;;4917623;29;20265;-58
2021/07/17 02:45:22;;;;;;;17.95;16.40;;;17.30;99.90;;;;;;4917262;29;20252;-59
2021/07/17 02:47:51;;;;;;;18.35;16.58;;;17.30;99.90;;;;;;4917292;29;20304;-56
2021/07/17 02:50:20;;;;;;;19.92;18.10;;;17.40;99.90;;;;;;4917048;29;20308;-52
2021/07/17 02:52:48;;;;;;;17.83;16.23;;;17.40;99.90;;;;;;4917218;29;20747;-53
2021/07/17 02:55:17;;;;;;;18.63;16.88;;;17.40;99.90;;;;;;4917366;29;20307;-52
2021/07/17 02:57:45;;;;;;;18.95;17.35;;;17.40;99.90;;;;;;4917208;29;20272;-55
2021/07/17 03:00:14;;;;;;;17.20;15.73;;;17.50;99.90;;;;;;4917208;29;20300;-54
2021/07/17 03:02:42;;;;;;;18.23;16.60;;;17.50;99.90;;;;;;4917046;29;20244;-55
2021/07/17 03:05:12;;;;;;;18.65;16.88;;;17.50;99.90;;;;;;4917125;29;20212;-54
2021/07/17 03:07:42;;;;;;;19.08;17.38;;;17.50;99.90;;;;;;4916406;29;20347;-56
2021/07/17 03:10:10;;;;;;;17.63;16.02;;;17.60;99.90;;;;;;4917036;29;20307;-55
2021/07/17 03:12:39;;;;;;;19.38;17.55;;;17.60;99.90;;;;;;4916823;29;20209;-55
2021/07/17 03:15:07;;;;;;;18.58;16.90;;;17.60;99.90;;;;;;4916802;29;20299;-54
2021/07/17 03:17:36;;;;;;;19.63;17.73;;;17.60;99.90;;;;;;4916481;29;20236;-54
2021/07/17 03:20:05;;;;;;;21.05;17.88;;;17.60;99.90;;;;;;4916633;29;20799;-52
2021/07/17 03:22:33;;;;;;;19.58;17.58;;;17.70;99.90;;;;;;4916580;29;20236;-53
2021/07/17 03:25:03;;;;;;;20.35;18.35;;;17.70;99.90;;;;;;4916645;29;20701;-56
2021/07/17 03:27:31;;;;;;;20.55;18.73;;;17.70;99.90;;;;;;4916606;29;20296;-58
2021/07/17 03:29:59;;;;;;;20.75;18.42;;;17.70;99.90;;;;;;4916515;29;20696;-57
2021/07/17 03:32:27;;;;;;;21.77;19.48;;;17.70;99.90;;;;;;4916496;29;20258;-58
2021/07/17 03:34:55;;;;;;;21.67;18.80;;;17.70;99.90;;;;;;4916433;29;20619;-59
2021/07/17 03:37:23;;;;;;;22.08;19.83;;;17.70;99.90;;;;;;4916293;29;20232;-59
2021/07/17 03:39:52;;;;;;;22.20;19.98;;;17.70;99.90;;;;;;4916474;29;20307;-57
2021/07/17 03:42:22;;;;;;;21.40;19.33;;;17.80;99.90;;;;;;4916305;29;20582;-56
2021/07/17 03:44:50;;;;;;;27.20;20.95;;;17.80;99.90;;;;;;4916315;29;20312;-59
2021/07/17 03:47:18;;;;;;;22.15;19.88;;;17.80;99.90;;;;;;4917981;29;20234;-55
2021/07/17 03:49:46;;;;;;;23.95;20.05;;;17.80;99.90;;;;;;4916294;29;20744;-56
2021/07/17 03:52:14;;;;;;;21.55;19.55;;;17.80;99.90;;;;;;4916293;29;20212;-57
2021/07/17 03:54:42;;;;;;;23.77;21.35;;;17.80;99.90;;;;;;4916223;29;20217;-54
2021/07/17 03:57:10;;;;;;;20.83;18.63;;;17.80;99.90;;;;;;4916015;29;20279;-59
2021/07/17 03:59:40;;;;;;;25.38;21.52;;;17.80;99.90;;;;;;4916167;29;20227;-56
2021/07/17 04:02:07;;;;;;;23.13;21.02;;;17.90;99.90;;;;;;4915890;29;20219;-60
2021/07/17 04:04:40;;;;;;;22.05;19.95;;;17.90;99.90;;;;;;4915923;29;20213;-57
2021/07/17 04:07:09;;;;;;;22.75;20.13;;;17.90;99.90;;;;;;4915502;29;20236;-53
2021/07/17 04:09:37;;;;;;;22.50;20.23;;;17.90;99.90;;;;;;4915831;29;20216;-55
2021/07/17 04:12:05;;;;;;;22.90;20.45;;;17.90;99.90;;;;;;4916122;29;20223;-52
2021/07/17 04:14:33;;;;;;;21.70;19.60;;;17.90;99.90;;;;;;4916274;29;20340;-58
2021/07/17 04:17:03;;;;;;;22.13;19.92;;;17.90;99.90;;;;;;4915856;29;20208;-55
2021/07/17 04:19:31;;;;;;;22.08;20.02;;;17.90;99.90;;;;;;4915886;29;20319;-55
2021/07/17 04:21:59;;;;;;;23.40;21.05;;;18.00;99.90;;;;;;4915903;29;20220;-57
2021/07/17 04:24:27;;;;;;;21.45;18.85;;;18.00;99.90;;;;;;4916198;29;20727;-58
2021/07/17 04:26:55;;;;;;;24.80;21.05;;;18.00;99.90;;;;;;4916206;29;20303;-54
2021/07/17 04:29:23;;;;;;;22.45;20.17;;;18.00;99.90;;;;;;4915941;29;20209;-55
2021/07/17 04:31:51;;;;;;;23.25;20.20;;;18.00;99.90;;;;;;4915931;29;20272;-59
2021/07/17 04:34:21;;;;;;;24.00;21.27;;;18.00;99.90;;;;;;4915883;29;20204;-53
2021/07/17 04:36:49;;;;;;;24.60;21.75;;;18.00;99.90;;;;;;4915770;29;20220;-57
2021/07/17 04:39:17;;;;;;;23.42;20.80;;;18.00;99.90;;;;;;4915904;29;20268;-54
2021/07/17 04:41:45;;;;;;;24.60;22.20;;;18.00;99.90;;;;;;4915778;29;20316;-59
2021/07/17 04:44:13;;;;;;;23.60;21.10;;;18.00;99.90;;;;;;4915822;29;20252;-57
2021/07/17 04:46:41;;;;;;;24.90;22.35;;;18.10;99.90;;;;;;4915707;29;20215;-54
2021/07/17 04:49:09;;;;;;;24.63;22.13;;;18.00;99.90;;;;;;4914848;29;20279;-56
2021/07/17 04:51:38;;;;;;;23.98;21.67;;;18.00;99.90;;;;;;4915865;29;20259;-56
2021/07/17 04:54:06;;;;;;;23.90;21.38;;;18.00;99.90;;;;;;4915641;29;20252;-54
2021/07/17 04:56:34;;;;;;;24.13;21.58;;;18.00;99.90;;;;;;4915551;29;20316;-57
2021/07/17 04:59:02;;;;;;;22.85;20.63;;;18.10;99.90;;;;;;4915597;29;20233;-56
2021/07/17 05:01:30;;;;;;;25.63;22.83;;;18.10;99.90;;;;;;4915329;29;20227;-54
2021/07/17 05:03:58;;;;;;;24.02;21.42;;;18.10;99.90;;;;;;4915405;29;20223;-56
2021/07/17 05:06:26;;;;;;;26.17;22.17;;;18.10;99.90;;;;;;4915630;29;20308;-52
2021/07/17 05:08:55;;;;;;;26.67;23.42;;;18.10;99.90;;;;;;4915332;29;20236;-52
2021/07/17 05:11:23;;;;;;;28.63;23.48;;;18.10;99.90;;;;;;4915519;29;20212;-56
2021/07/17 05:13:51;;;;;;;24.88;22.23;;;18.10;99.90;;;;;;4915461;29;20220;-52
2021/07/17 05:16:19;;;;;;;23.65;21.08;;;18.10;99.90;;;;;;4915444;29;20319;-53
2021/07/17 05:18:47;;;;;;;23.77;21.00;;;18.10;99.90;;;;;;4915604;29;20247;-61
2021/07/17 05:21:16;;;;;;;27.40;22.25;;;18.10;99.90;;;;;;4915561;29;20225;-57
2021/07/17 05:23:48;;;;;;;25.92;23.33;;;18.10;99.90;;;;;;4915409;29;20284;-55
2021/07/17 05:26:17;;;;;;;25.73;21.10;;;18.10;99.90;;;;;;4915342;29;20209;-56
2021/07/17 05:28:45;;;;;;;25.17;20.60;;;18.10;99.90;;;;;;4915355;29;20252;-58
2021/07/17 05:31:13;;;;;;;23.08;20.73;;;18.10;99.90;;;;;;4918593;29;20568;-56
2021/07/17 05:33:41;;;;;;;22.73;20.45;;;18.20;99.90;;;;;;4918942;29;20328;-60
2021/07/17 05:36:09;;;;;;;24.50;22.08;;;18.20;99.90;;;;;;4918730;29;20220;-57
2021/07/17 05:38:37;;;;;;;27.13;21.35;;;18.20;99.90;;;;;;4918622;29;20232;-50
2021/07/17 05:41:05;;;;;;;25.27;21.33;;;18.20;99.90;;;;;;4918561;29;20303;-52
2021/07/17 05:43:35;;;;;;;25.80;22.25;;;18.30;99.90;;;;;;4918453;29;20255;-50
2021/07/17 05:46:03;;;;;;;24.73;22.17;;;18.30;99.90;;;;;;4918657;29;20251;-51
2021/07/17 05:48:31;;;;;;;24.85;22.27;;;18.30;99.90;;;;;;4918513;29;20204;-55
2021/07/17 05:50:59;;;;;;;23.92;21.38;;;18.30;99.90;;;;;;4918558;29;20299;-51
2021/07/17 05:53:27;;;;;;;25.30;22.25;;;18.30;99.90;;;;;;4918607;29;20241;-57
2021/07/17 05:55:54;;;;;;;25.48;21.90;;;18.30;99.90;;;;;;4918221;29;20217;-52
2021/07/17 05:58:22;;;;;;;25.73;21.63;;;18.40;99.90;;;;;;4918341;29;20296;-48
2021/07/17 06:00:52;;;;;;;26.73;22.58;;;18.40;99.90;;;;;;4918556;29;20232;-52
2021/07/17 06:03:20;;;;;;;22.73;20.20;;;18.40;99.90;;;;;;4918141;29;20213;-52
2021/07/17 06:05:48;;;;;;;24.08;21.55;;;18.40;99.90;;;;;;4918128;29;20212;-53
2021/07/17 06:08:16;;;;;;;23.50;20.30;;;18.40;99.90;;;;;;4918031;29;20295;-52
2021/07/17 06:10:44;;;;;;;23.63;20.70;;;18.40;99.90;;;;;;4918304;29;20216;-58
2021/07/17 06:13:12;;;;;;;24.50;20.67;;;18.50;99.90;;;;;;4918373;29;20237;-55
2021/07/17 06:15:40;;;;;;;23.85;20.33;;;18.50;99.90;;;;;;4918236;29;20296;-54
2021/07/17 06:18:09;;;;;;;24.30;20.58;;;18.50;99.90;;;;;;4918058;29;20212;-55
2021/07/17 06:20:40;;;;;;;24.45;20.08;;;18.60;99.90;;;;;;4921068;29;20300;-56
2021/07/17 06:23:13;;;;;;;25.15;19.85;;;18.60;99.90;;;;;;4917971;29;20219;-56
2021/07/17 06:25:41;;;;;;;22.70;19.48;;;18.70;99.90;;;;;;4918021;29;20295;-52
2021/07/17 06:28:09;;;;;;;23.90;19.33;;;18.70;99.90;;;;;;4917912;29;20252;-57
2021/07/17 06:30:37;;;;;;;22.63;20.30;;;18.70;99.90;;;;;;4917793;29;20219;-51
2021/07/17 06:33:05;;;;;;;23.75;20.90;;;18.70;99.90;;;;;;4917736;29;20225;-54
2021/07/17 06:35:34;;;;;;;25.25;20.25;;;18.70;99.90;;;;;;4917460;29;20633;-55
2021/07/17 06:38:02;;;;;;;23.33;19.25;;;18.70;99.90;;;;;;4917808;29;20343;-54
2021/07/17 06:40:30;;;;;;;24.30;20.02;;;18.80;99.90;;;;;;4917411;29;20341;-56
2021/07/17 06:42:58;;;;;;;22.33;19.70;;;18.80;99.90;;;;;;4917577;29;20300;-52
2021/07/17 06:45:26;;;;;;;32.15;22.88;;;18.80;99.90;;;;;;4917577;29;20213;-56
2021/07/17 06:47:54;;;;;;;23.67;21.13;;;18.80;99.90;;;;;;4917331;29;20300;-57
2021/07/17 06:50:23;;;;;;;24.40;20.35;;;18.80;99.90;;;;;;4917955;29;20615;-59
2021/07/17 06:52:52;;;;;;;25.73;19.98;;;18.80;99.90;;;;;;4917300;29;20693;-59
2021/07/17 06:55:20;;;;;;;27.73;19.70;;;18.80;99.90;;;;;;4917209;29;20312;-55
2021/07/17 06:57:48;;;;;;;26.58;22.05;;;18.80;99.90;;;;;;4917410;29;20366;-60
2021/07/17 07:00:18;;;;;;;23.52;20.88;;;18.80;99.90;;;;;;4917299;29;20229;-56
2021/07/17 07:02:50;;;;;;;22.23;19.88;;;18.80;99.90;;;;;;4917629;29;20673;-54
2021/07/17 07:05:18;;;;;;;24.95;21.90;;;18.80;99.90;;;;;;4917087;29;20213;-56
2021/07/17 07:07:46;;;;;;;26.08;21.52;;;18.80;99.90;;;;;;4917258;29;20255;-57
2021/07/17 07:10:15;;;;;;;29.55;21.00;;;18.80;99.90;;;;;;4916979;29;20247;-53
2021/07/17 07:12:43;;;;;;;23.92;21.35;;;18.80;99.90;;;;;;4917642;29;20223;-55
2021/07/17 07:15:15;;;;;;;24.25;20.25;;;18.80;99.90;;;;;;4917206;29;20312;-57
2021/07/17 07:17:44;;;;;;;22.70;20.08;;;18.90;99.90;;;;;;4916959;29;20268;-53
2021/07/17 07:20:13;;;;;;;24.92;20.85;;;19.00;99.90;;;;;;4916802;29;20700;-56
2021/07/17 07:22:42;;;;;;;30.05;22.23;;;19.00;99.90;;;;;;4916589;29;20217;-57
2021/07/17 07:25:11;;;;;;;23.30;20.83;;;19.00;99.90;;;;;;4916663;29;20304;-57
2021/07/17 07:27:42;;;;;;;25.33;20.67;;;19.10;99.90;;;;;;4917253;29;20297;-56
2021/07/17 07:30:10;;;;;;;23.85;20.67;;;19.10;99.90;;;;;;4917535;29;20295;-52
2021/07/17 07:32:53;;;;;;;22.13;19.35;;;19.10;99.90;;;;;;4916767;29;20223;-51
2021/07/17 07:35:23;;;;;;;22.17;19.77;;;19.10;99.90;;;;;;4916595;29;20216;-56
2021/07/17 07:37:51;;;;;;;24.77;19.83;;;19.10;99.90;;;;;;4916450;29;20311;-53
2021/07/17 07:40:21;;;;;;;29.90;20.05;;;19.10;99.90;;;;;;4916691;29;20236;-51
2021/07/17 07:42:50;;;;;;;23.15;20.83;;;19.20;99.90;;;;;;4916503;29;20312;-51
2021/07/17 07:45:19;;;;;;;26.08;20.98;;;19.20;99.90;;;;;;4916358;29;20371;-56
2021/07/17 07:47:48;;;;;;;21.52;18.85;;;19.20;99.90;;;;;;4916445;29;20217;-56
2021/07/17 07:50:17;;;;;;;25.90;22.50;;;19.30;99.90;;;;;;4916797;29;20243;-53
2021/07/17 07:52:45;;;;;;;24.63;20.55;;;19.40;99.90;;;;;;4916117;29;20345;-54
2021/07/17 07:55:16;;;;;;;24.27;19.85;;;19.50;99.90;;;;;;4916387;29;20268;-55
2021/07/17 07:57:44;;;;;;;30.10;21.95;;;19.60;99.90;;;;;;4916373;29;20288;-47
2021/07/17 08:00:16;;;;;;;25.17;20.20;;;19.70;99.90;;;;;;4916222;29;20320;-52
2021/07/17 08:02:52;;;;;;;21.85;19.65;;;19.70;99.90;;;;;;4915824;29;20275;-51
2021/07/17 08:05:21;;;;;;;25.98;19.52;;;19.70;99.90;;;;;;4915972;29;20245;-47
2021/07/17 08:07:49;;;;;;;24.00;20.25;;;19.70;99.90;;;;;;4915622;29;20724;-53
2021/07/17 08:10:17;;;;;;;25.73;20.98;;;19.70;99.90;;;;;;4915850;29;20316;-53
2021/07/17 08:12:45;;;;;;;25.20;20.92;;;19.70;99.90;;;;;;4915894;29;20251;-54
2021/07/17 08:15:15;;;;;;;27.65;20.75;;;19.70;99.90;;;;;;4915625;29;20618;-53
2021/07/17 08:17:43;;;;;;;25.15;19.25;;;19.60;99.90;;;;;;4915734;29;20309;-50
2021/07/17 08:20:11;;;;;;;23.27;20.38;;;19.60;99.90;;;;;;4915614;29;20271;-51
2021/07/17 08:22:40;;;;;;;22.70;19.90;;;19.60;99.90;;;;;;4915682;29;20212;-49
2021/07/17 08:25:10;;;;;;;24.77;20.30;;;19.50;99.90;;;;;;4915623;29;20217;-48
2021/07/17 08:27:38;;;;;;;25.58;21.15;;;19.50;99.90;;;;;;4915689;29;20213;-51
2021/07/17 08:30:09;;;;;;;25.77;21.05;;;19.50;99.90;;;;;;4915601;29;20315;-51
2021/07/17 08:32:55;;;;;;;22.42;18.83;;;19.50;99.90;;;;;;4915572;29;20256;-53
2021/07/17 08:35:24;;;;;;;25.88;21.27;;;19.50;99.90;;;;;;4915649;29;20696;-52
2021/07/17 08:37:52;;;;;;;22.63;19.60;;;19.50;99.90;;;;;;4915700;29;20244;-53
2021/07/17 08:40:25;;;;;;;23.33;18.50;;;19.50;99.90;;;;;;4915685;29;20229;-54
2021/07/17 08:42:55;;;;;;;23.60;19.55;;;19.60;99.90;;;;;;4915955;29;20212;-51
2021/07/17 08:45:24;;;;;;;22.45;19.98;;;19.60;99.90;;;;;;4915537;29;20750;-50
2021/07/17 08:47:56;;;;;;;22.42;18.92;;;19.70;99.90;;;;;;4915650;29;20720;-50
2021/07/17 08:50:26;;;;;;;23.02;18.90;;;19.70;99.90;;;;;;4915617;29;20209;-51
2021/07/17 08:52:56;;;;;;;21.70;19.40;;;19.80;99.90;;;;;;4915523;29;20307;-51
2021/07/17 08:55:26;;;;;;;24.27;18.73;;;19.90;99.90;;;;;;4915268;29;20219;-48
2021/07/17 08:57:54;;;;;;;25.35;18.73;;;19.90;99.90;;;;;;4915239;29;20280;-48
2021/07/17 09:00:24;;;;;;;22.50;18.48;;;19.90;99.90;;;;;;4915301;29;20237;-48
2021/07/17 09:02:55;;;;;;;25.10;18.38;;;19.80;99.90;;;;;;4915409;29;20300;-46
2021/07/17 09:05:27;;;;;;;21.80;19.23;;;19.80;99.90;;;;;;4917837;29;20268;-50
2021/07/17 09:07:55;;;;;;;21.75;18.85;;;19.80;99.90;;;;;;4919324;29;20236;-49
2021/07/17 09:10:33;;;;;;;20.35;18.00;;;19.90;99.90;;;;;;4919116;29;20213;-50
2021/07/17 09:13:11;;;;;;;18.85;17.02;;;19.90;99.90;;;;;;4919145;29;20308;-50
2021/07/17 09:15:42;;;;;;;23.30;17.42;;;19.90;99.90;;;;;;4919064;29;20212;-53
2021/07/17 09:18:11;;;;;;;21.08;18.48;;;19.80;99.90;;;;;;4919290;29;20213;-50
2021/07/17 09:20:54;;;;;;;20.17;18.02;;;19.80;99.90;;;;;;4918808;29;20265;-50
2021/07/17 09:23:26;;;;;;;27.15;18.75;;;19.80;99.90;;;;;;4918829;29;20661;-51
2021/07/17 09:25:54;;;;;;;22.75;19.00;;;19.80;99.90;;;;;;4918796;29;20303;-51
2021/07/17 09:28:23;;;;;;;23.48;18.60;;;19.70;99.90;;;;;;4918712;29;20247;-53
2021/07/17 09:30:54;;;;;;;25.13;20.00;;;19.60;99.90;;;;;;4918752;29;20299;-51
2021/07/17 09:33:24;;;;;;;25.95;17.92;;;19.50;99.90;;;;;;4918514;29;20217;-48
2021/07/17 09:35:54;;;;;;;20.90;18.35;;;19.40;99.90;;;;;;4918667;29;20259;-48
2021/07/17 09:38:24;;;;;;;25.52;19.30;;;19.40;99.90;;;;;;4918498;29;20682;-51
2021/07/17 09:40:54;;;;;;;22.88;19.55;;;19.30;99.90;;;;;;4918348;29;20778;-49
2021/07/17 09:43:30;;;;;;;25.60;22.15;;;19.30;99.90;;;;;;4918484;29;20320;-50
2021/07/17 09:45:59;;;;;;;32.47;25.20;;;19.30;99.90;;;;;;4918692;29;20303;-48
2021/07/17 09:48:31;;;;;;;26.23;22.80;;;19.30;99.90;;;;;;4918502;29;20236;-48
2021/07/17 09:51:01;;;;;;;25.02;19.70;;;19.30;99.90;;;;;;4918215;29;20291;-51
2021/07/17 09:53:41;;;;;;;20.67;18.45;;;19.30;99.90;;;;;;4917950;29;20299;-48
2021/07/17 09:56:10;;;;;;;20.38;18.25;;;19.40;99.90;;;;;;4917990;29;20217;-50
2021/07/17 09:58:39;;;;;;;23.58;17.30;;;19.40;99.90;;;;;;4918029;29;20219;-51
2021/07/17 10:01:25;;;;;;;20.25;17.98;;;19.50;99.90;;;;;;4917882;29;20592;-48
2021/07/17 10:04:02;;;;;;;21.05;17.42;;;19.50;99.90;;;;;;4917758;29;20272;-52
2021/07/17 10:06:40;;;;;;;21.98;17.45;;;19.50;99.90;;;;;;4917968;29;20248;-48
2021/07/17 10:09:24;;;;;;;21.90;17.70;;;19.50;99.90;;;;;;4917567;29;20249;-47
2021/07/17 10:11:54;;;;;;;29.15;18.90;;;19.50;99.90;;;;;;4917644;29;20300;-49
2021/07/17 10:14:25;;;;;;;21.73;19.38;;;19.50;99.90;;;;;;4916060;29;20528;-48
2021/07/17 10:16:56;;;;;;;21.48;17.50;;;19.60;99.90;;;;;;4916417;29;20252;-50
2021/07/17 10:19:27;;;;;;;22.52;18.85;;;19.70;99.90;;;;;;4916838;29;20209;-47
2021/07/17 10:21:56;;;;;;;18.70;16.73;;;19.80;99.90;;;;;;4917078;29;20250;-47
2021/07/17 10:24:26;;;;;;;22.02;18.85;;;19.80;99.90;;;;;;4916885;29;20645;-49
2021/07/17 10:26:55;;;;;;;20.85;17.40;;;19.70;99.90;;;;;;4917252;29;20243;-49
2021/07/17 10:29:24;;;;;;;22.45;18.02;;;19.70;99.90;;;;;;4916795;29;20227;-46
2021/07/17 10:31:53;;;;;;;21.35;18.70;;;19.70;99.90;;;;;;4916877;29;20472;-48
2021/07/17 10:34:22;;;;;;;25.65;22.67;;;19.70;99.90;;;;;;4915429;29;20633;-47
2021/07/17 10:36:56;;;;;;;24.55;20.67;;;19.80;99.90;;;;;;4916840;29;20320;-48
2021/07/17 10:39:28;;;;;;;20.77;18.58;;;20.00;99.90;;;;;;4917442;29;20318;-49
2021/07/17 10:41:59;;;;;;;20.52;18.10;;;20.30;99.90;;;;;;4916762;29;20333;-49
2021/07/17 10:44:42;;;;;;;21.92;17.00;;;20.60;99.90;;;;;;4918629;29;20213;-50
2021/07/17 10:47:11;;;;;;;18.10;16.23;;;20.80;99.90;;;;;;4916674;29;20212;-48
2021/07/17 10:49:42;;;;;;;18.15;15.05;;;20.90;99.90;;;;;;4916236;29;20752;-51
2021/07/17 10:52:12;;;;;;;15.57;13.68;;;20.80;99.90;;;;;;4916840;29;20591;-46
2021/07/17 10:54:40;;;;;;;17.25;14.02;;;20.80;99.90;;;;;;4916411;29;20213;-48
2021/07/17 10:57:09;;;;;;;15.00;13.05;;;20.80;99.90;;;;;;4916626;29;20308;-45
2021/07/17 10:59:47;;;;;;;17.75;12.68;;;20.70;99.90;;;;;;4916507;29;20287;-47
2021/07/17 11:02:25;;;;;;;15.73;13.27;;;20.70;99.90;;;;;;4916329;29;20260;-46
2021/07/17 11:05:01;;;;;;;16.27;13.15;;;20.60;99.90;;;;;;4915717;29;20213;-47
2021/07/17 11:07:51;;;;;;;13.43;12.23;;;20.60;99.90;;;;;;4916602;29;20365;-45
2021/07/17 11:10:21;;;;;;;16.10;12.48;;;20.50;99.90;;;;;;4915994;29;20303;-48
2021/07/17 11:12:58;;;;;;;13.05;11.85;;;20.50;99.90;;;;;;4916061;29;20610;-46
2021/07/17 11:15:40;;;;;;;13.25;11.50;;;20.40;99.90;;;;;;4916093;29;20238;-50
2021/07/17 11:18:45;;;;;;;13.52;12.13;;;20.50;99.90;;;;;;4914858;29;20240;-48
2021/07/17 11:21:25;;;;;;;13.50;11.80;;;20.50;99.90;;;;;;4916034;29;20216;-49
2021/07/17 11:24:05;;;;;;;12.48;11.07;;;20.50;99.90;;;;;;4916040;29;20284;-48
2021/07/17 11:26:33;;;;;;;13.82;12.38;;;20.60;99.90;;;;;;4915426;29;20303;-46
2021/07/17 11:29:07;;;;;;;11.38;10.18;;;20.60;99.90;;;;;;4915175;29;20672;-46
2021/07/17 11:31:51;;;;;;;12.40;9.82;;;20.70;99.90;;;;;;4916575;29;20232;-51
2021/07/17 11:34:35;;;;;;;11.30;10.05;;;20.70;99.90;;;;;;4916729;29;20589;-52
2021/07/17 11:37:07;;;;;;;10.85;9.73;;;20.80;99.90;;;;;;4916468;29;20623;-48
2021/07/17 11:39:39;;;;;;;10.68;9.57;;;20.80;99.90;;;;;;4916346;29;20308;-51
2021/07/17 11:42:08;;;;;;;11.05;9.85;;;20.70;99.90;;;;;;4916197;29;20539;-51
2021/07/17 11:44:39;;;;;;;11.50;10.13;;;20.80;99.90;;;;;;4916070;29;20248;-50
2021/07/17 11:47:10;;;;;;;10.25;9.25;;;21.00;99.90;;;;;;4915842;29;20692;-53
2021/07/17 11:49:41;;;;;;;11.00;9.40;;;21.10;99.90;;;;;;4914088;29;20283;-53
2021/07/17 11:52:11;;;;;;;10.65;9.50;;;21.10;99.90;;;;;;4914482;29;20271;-50
2021/07/17 11:54:43;;;;;;;12.45;10.23;;;21.10;99.90;;;;;;4915475;29;20230;-49
2021/07/17 11:57:14;;;;;;;10.40;9.40;;;21.10;99.90;;;;;;4915315;29;20672;-51
2021/07/17 11:59:45;;;;;;;9.52;8.63;;;21.10;99.90;;;;;;4915423;29;20308;-49
2021/07/17 12:02:14;;;;;;;10.02;9.07;;;21.10;99.90;;;;;;4915293;29;20700;-49
2021/07/17 12:04:46;;;;;;;10.20;8.75;;;21.10;99.90;;;;;;4915144;29;20204;-53
2021/07/17 12:07:15;;;;;;;9.13;8.23;;;21.00;99.90;;;;;;4915286;29;20249;-51
2021/07/17 12:09:50;;;;;;;9.23;8.32;;;20.90;99.90;;;;;;4915294;29;20659;-52
2021/07/17 12:12:30;;;;;;;9.82;8.85;;;20.90;99.90;;;;;;4915123;29;20212;-54
2021/07/17 12:15:13;;;;;;;9.20;8.30;;;20.90;99.90;;;;;;4915374;29;20472;-53
2021/07/17 12:17:50;;;;;;;8.60;7.88;;;21.00;99.90;;;;;;4915203;29;20233;-49
2021/07/17 12:20:20;;;;;;;9.43;8.50;;;21.10;99.90;;;;;;4915117;29;20276;-50
2021/07/17 12:22:52;;;;;;;8.75;8.05;;;21.20;99.90;;;;;;4915090;29;20239;-48
2021/07/17 12:25:24;;;;;;;9.07;8.23;;;21.30;99.90;;;;;;4914885;29;20223;-50
2021/07/17 12:27:55;;;;;;;11.20;7.93;;;21.30;99.90;;;;;;4914806;29;20749;-47
2021/07/17 12:30:24;;;;;;;8.75;8.05;;;21.30;99.90;;;;;;4915075;29;20213;-51
2021/07/17 12:33:18;;;;;;;8.38;7.57;;;21.40;99.90;;;;;;4914832;29;20276;-53
2021/07/17 12:35:49;;;;;;;9.85;8.50;;;21.40;99.90;;;;;;4914761;29;20213;-53
2021/07/17 12:38:19;;;;;;;9.63;8.38;;;21.40;99.90;;;;;;4915729;29;20299;-51
2021/07/17 12:40:50;;;;;;;9.52;8.05;;;21.30;99.90;;;;;;4918907;29;20295;-51
2021/07/17 12:43:24;;;;;;;10.10;8.70;;;21.30;99.90;;;;;;4918644;29;20299;-51
2021/07/17 12:45:56;;;;;;;10.32;9.43;;;21.30;99.90;;;;;;4918710;29;20276;-50